Capitol Logistics 263


KIAD
Washington Dulles International Airport
Dulles, Virginia, US
KBOS
Logan International Airport
Boston, Massachusetts, US

Activity Log

Date Flight Route Aircraft Duration
02/02/2020 CPX263 JCOBY3 SWANN BROSS J42 RBV J222 JFK ROBUC3 B763 1h 15m
12/18/2019 CPX263 JCOBY3 SWANN BROSS J42 RBV J222 JFK ROBUC3 B763 1h 12m
10/29/2019 CPX263 WOOLY1 BAL MXE J75 DUEYS MERIT ROBUC3 B763 1h 27m
05/27/2019 CPX263 JCOBY3 SWANN BROSS J42 RBV J222 JFK ROBUC3 B763 1h 25m
04/13/2019 CPX263 JCOBY3 SWANN BROSS J42 RBV J222 JFK ROBUC3 B763 1h 26m
03/25/2019 CPX263 JCOBY3 SWANN BROSS J42 RBV J222 JFK ROBUC3 B763 1h 12m

Route Details

Aircraft Information
Primary: Boeing 767-300BDSF
Backup: Boeing 757-200SF
Route Data
Distance: 359nm
Sched. Duration: 1h 19m
Avg. Duration: 1h 19m (-0m)
Times Flown: 6
Recm'd Route: JCOBY3 SWANN BROSS J42 RBV J222 JFK ROBUC3
Planned Altitude: 31,000ft
Origin Wx: KIAD 282052Z 28007KT 10SM OVC075 07/M04 A2983 RMK AO2 SLP103 T00671044 56018
Dest. Wx: KBOS 282054Z 24013G19KT 10SM BKN065 02/M12 A2972 RMK AO2 PK WND 22026/2003 SLP063 T00221122 53003
Notes:

Financial History
Total Freight: 500,225lbs
Average Load: 83,371lbs/flt
Fuel Used: 79,128lbs
Avg. Fuel Used: 13,188lbs/flt
Fuel Expense: $103,679
Avg. Fuel Expense: $17,280
Avg. Fuel Cost: $1.31/lbs
Total Gross Income: $641,046
Pilot Pay: $1,014
Total Expenses: $69,545
Total Revenue: $466,388
Average Revenue: $106,840.97